Time;durP1;ratioP1;P1;durP2;ratioP2;P2;SDS_P1;SDS_P2;PMS_P1;PMS_P2;Temp;Humidity;BMP_temperature;BMP_pressure;BME280_temperature;BME280_humidity;BME280_pressure;Samples;Min_cycle;Max_cycle;Signal;HPM_P1;HPM_P2
2022/07/14 00:01:24;;;;;;;3.83;1.90;;;19.50;92.70;;;;;;5111542;28;20044;-82
2022/07/14 00:03:50;;;;;;;2.10;1.52;;;19.50;94.30;;;;;;5111660;28;20035;-82
2022/07/14 00:06:16;;;;;;;3.92;1.52;;;19.50;94.80;;;;;;5111707;28;20024;-83
2022/07/14 00:08:43;;;;;;;3.33;1.83;;;19.50;95.70;;;;;;5111896;28;20474;-82
2022/07/14 00:11:10;;;;;;;4.65;1.77;;;19.50;94.20;;;;;;5111807;28;20078;-83
2022/07/14 00:13:37;;;;;;;4.25;1.60;;;19.60;94.60;;;;;;5111822;28;20085;-83
2022/07/14 00:16:03;;;;;;;6.22;1.50;;;19.50;94.70;;;;;;5112877;28;20022;-82
2022/07/14 00:18:30;;;;;;;3.53;1.83;;;19.50;94.40;;;;;;5112801;28;20039;-82
2022/07/14 00:20:56;;;;;;;6.35;1.73;;;19.50;94.50;;;;;;5112011;28;20032;-82
2022/07/14 00:23:24;;;;;;;4.03;1.92;;;19.40;95.50;;;;;;5111907;28;20537;-81
2022/07/14 00:25:50;;;;;;;3.63;1.63;;;19.30;95.20;;;;;;5111758;28;20131;-82
2022/07/14 00:28:16;;;;;;;3.20;1.92;;;19.30;99.50;;;;;;5111745;28;20439;-82
2022/07/14 00:30:42;;;;;;;3.72;1.85;;;19.30;99.90;;;;;;5093324;28;20016;-83
2022/07/14 00:33:08;;;;;;;3.85;1.95;;;19.30;98.80;;;;;;5093521;28;20035;-84
2022/07/14 00:35:34;;;;;;;2.92;1.50;;;19.20;95.20;;;;;;5093435;28;20115;-81
2022/07/14 00:38:00;;;;;;;3.97;1.80;;;19.10;95.70;;;;;;5111786;28;20492;-82
2022/07/14 00:40:26;;;;;;;2.80;1.80;;;19.00;95.90;;;;;;5094326;28;20496;-77
2022/07/14 00:42:52;;;;;;;6.57;2.40;;;19.00;96.00;;;;;;5097282;28;20052;-76
2022/07/14 00:45:20;;;;;;;3.05;1.75;;;19.00;96.40;;;;;;5115188;28;20105;-83
2022/07/14 00:47:47;;;;;;;2.65;1.63;;;19.00;96.30;;;;;;5115257;28;20058;-82
2022/07/14 00:50:15;;;;;;;4.78;2.03;;;18.90;96.60;;;;;;5097196;28;20077;-81
2022/07/14 00:52:43;;;;;;;5.30;2.03;;;18.90;96.70;;;;;;5097402;28;20035;-83
2022/07/14 00:55:11;;;;;;;4.07;2.03;;;18.80;96.80;;;;;;5096774;28;20027;-83
2022/07/14 00:57:37;;;;;;;5.45;1.88;;;18.90;96.70;;;;;;5096383;28;20024;-82
2022/07/14 01:00:08;;;;;;;7.60;2.30;;;18.90;96.90;;;;;;5109263;28;20057;-83
2022/07/14 01:02:34;;;;;;;3.50;1.95;;;18.90;96.70;;;;;;5108441;28;20051;-83
2022/07/14 01:05:00;;;;;;;5.72;2.30;;;18.80;96.60;;;;;;5115012;28;20046;-82
2022/07/14 01:07:26;;;;;;;4.68;2.00;;;18.90;96.30;;;;;;5115180;28;20031;-83
2022/07/14 01:09:52;;;;;;;8.25;2.05;;;18.90;96.20;;;;;;5095931;28;20024;-82
2022/07/14 01:12:18;;;;;;;2.60;1.70;;;18.90;95.90;;;;;;5096520;28;20027;-83
2022/07/14 01:14:45;;;;;;;3.15;2.00;;;18.90;96.40;;;;;;5114433;28;20043;-82
2022/07/14 01:17:12;;;;;;;5.03;2.10;;;18.90;95.80;;;;;;5115268;28;20020;-80
2022/07/14 01:19:38;;;;;;;5.72;2.20;;;18.90;96.30;;;;;;5115295;28;20374;-83
2022/07/14 01:22:06;;;;;;;7.00;2.28;;;18.90;96.60;;;;;;5096515;28;20054;-81
2022/07/14 01:24:32;;;;;;;3.58;1.98;;;18.90;96.20;;;;;;5096805;28;20020;-82
2022/07/14 01:26:58;;;;;;;7.40;2.15;;;18.90;96.80;;;;;;5096198;28;20027;-84
2022/07/14 01:29:25;;;;;;;8.00;2.22;;;18.90;96.80;;;;;;5096561;28;20022;-81
2022/07/14 01:31:52;;;;;;;7.63;2.33;;;18.90;96.70;;;;;;5114453;28;20027;-82
2022/07/14 01:34:18;;;;;;;8.82;2.42;;;18.80;96.90;;;;;;5096130;28;20067;-77
2022/07/14 01:36:45;;;;;;;4.07;2.10;;;18.80;98.20;;;;;;5097297;28;20095;-81
2022/07/14 01:39:12;;;;;;;5.70;2.10;;;18.70;97.70;;;;;;5115107;28;20055;-82
2022/07/14 01:41:38;;;;;;;4.28;2.50;;;18.70;98.40;;;;;;5114097;28;20450;-82
2022/07/14 01:44:04;;;;;;;8.20;2.55;;;18.70;98.80;;;;;;5114143;28;20150;-82
2022/07/14 01:46:30;;;;;;;5.90;2.20;;;18.60;99.20;;;;;;5115383;28;20032;-81
2022/07/14 01:48:56;;;;;;;5.28;2.15;;;18.60;99.20;;;;;;5096728;28;20110;-82
2022/07/14 01:51:24;;;;;;;5.63;2.97;;;18.50;99.80;;;;;;5095961;28;20031;-82
2022/07/14 01:53:50;;;;;;;5.40;2.30;;;18.50;99.30;;;;;;5095884;28;20069;-81
2022/07/14 01:56:16;;;;;;;5.20;2.47;;;18.40;99.90;;;;;;5095806;28;20027;-80
2022/07/14 01:58:42;;;;;;;4.40;2.03;;;18.50;99.20;;;;;;5095853;28;20027;-80
2022/07/14 02:03:58;;;;;;;4.70;2.35;;;18.30;99.90;;;;;;5095707;28;20046;-82
2022/07/14 02:06:23;;;;;;;9.27;3.33;;;18.20;99.90;;;;;;5114462;28;20474;-81
2022/07/14 02:08:50;;;;;;;4.93;2.88;;;18.20;99.90;;;;;;5096150;28;20048;-82
2022/07/14 02:14:03;;;;;;;8.02;3.10;;;18.20;99.90;;;;;;5083709;28;20090;-81
2022/07/14 02:16:30;;;;;;;4.70;2.90;;;18.20;99.90;;;;;;5095331;28;20108;-82
2022/07/14 02:18:57;;;;;;;6.55;2.92;;;18.20;99.90;;;;;;5095194;28;20027;-81
2022/07/14 02:21:26;;;;;;;4.10;2.72;;;18.30;99.90;;;;;;5096154;28;20110;-82
2022/07/14 02:23:52;;;;;;;5.82;2.85;;;18.30;99.90;;;;;;5095743;28;20028;-82
2022/07/14 02:26:19;;;;;;;5.25;2.63;;;18.30;99.90;;;;;;5095141;28;20034;-82
2022/07/14 02:28:45;;;;;;;4.25;3.22;;;18.20;99.90;;;;;;5094965;28;20027;-82
2022/07/14 02:31:11;;;;;;;6.50;3.28;;;18.20;99.90;;;;;;5113943;28;20051;-82
2022/07/14 02:33:37;;;;;;;10.32;3.92;;;18.20;99.90;;;;;;5113533;28;20070;-82
2022/07/14 02:36:05;;;;;;;7.97;3.10;;;18.10;99.90;;;;;;5094356;28;20111;-82
2022/07/14 02:38:31;;;;;;;8.63;3.60;;;18.00;99.90;;;;;;5095557;28;20031;-81
2022/07/14 02:40:57;;;;;;;6.72;3.60;;;18.00;99.90;;;;;;5094650;28;20085;-82
2022/07/14 02:43:26;;;;;;;6.15;3.30;;;17.90;99.90;;;;;;5112991;28;20032;-81
2022/07/14 02:45:52;;;;;;;9.88;3.15;;;17.90;99.90;;;;;;5093259;28;20012;-79
2022/07/14 02:48:18;;;;;;;8.10;3.30;;;17.80;99.90;;;;;;5113007;28;20036;-83
2022/07/14 02:50:45;;;;;;;6.30;2.95;;;17.90;99.90;;;;;;5094653;28;20164;-82
2022/07/14 02:53:11;;;;;;;7.15;3.25;;;17.70;99.90;;;;;;5095426;28;20016;-82
2022/07/14 02:55:42;;;;;;;5.22;3.10;;;17.80;99.90;;;;;;5094928;28;20500;-82
2022/07/14 02:58:08;;;;;;;6.32;3.10;;;17.80;99.90;;;;;;5095306;28;20024;-82
2022/07/14 03:00:34;;;;;;;8.52;3.35;;;17.80;99.90;;;;;;5094424;28;20030;-82
2022/07/14 03:03:06;;;;;;;6.28;2.95;;;17.80;99.90;;;;;;5093844;28;20051;-82
2022/07/14 03:05:32;;;;;;;8.98;3.67;;;17.80;99.90;;;;;;5095807;28;20492;-81
2022/07/14 03:07:58;;;;;;;6.85;3.35;;;17.90;99.90;;;;;;5094976;28;20027;-82
2022/07/14 03:10:24;;;;;;;7.72;2.85;;;17.90;99.90;;;;;;5094475;28;20023;-83
2022/07/14 03:12:50;;;;;;;7.28;3.15;;;17.80;99.90;;;;;;5095299;28;20036;-82
2022/07/14 03:15:16;;;;;;;8.52;3.60;;;17.90;99.90;;;;;;5089770;28;20136;-84
2022/07/14 03:17:42;;;;;;;10.75;3.28;;;17.80;99.90;;;;;;5090527;28;20023;-82
2022/07/14 03:20:09;;;;;;;6.22;3.55;;;17.90;99.90;;;;;;5089334;28;20470;-81
2022/07/14 03:22:35;;;;;;;8.82;4.05;;;18.00;99.90;;;;;;5092572;28;20031;-82
2022/07/14 03:25:09;;;;;;;8.05;4.50;;;18.00;99.90;;;;;;5077215;28;20028;-83
2022/07/14 03:27:38;;;;;;;11.07;4.70;;;18.10;99.90;;;;;;5093348;28;20138;-82
2022/07/14 03:30:06;;;;;;;10.55;3.42;;;18.20;99.90;;;;;;5093464;28;20047;-82
2022/07/14 03:32:32;;;;;;;6.43;2.70;;;18.20;99.90;;;;;;5091853;28;20449;-79
2022/07/14 03:34:59;;;;;;;4.13;2.90;;;18.30;99.90;;;;;;5091545;28;20418;-81
2022/07/14 03:37:27;;;;;;;8.95;3.00;;;18.40;99.90;;;;;;5091487;28;20127;-82
2022/07/14 03:39:57;;;;;;;5.45;2.67;;;18.40;99.90;;;;;;5091675;28;20035;-76
2022/07/14 03:42:23;;;;;;;7.57;3.60;;;18.40;99.90;;;;;;5096982;28;20035;-78
2022/07/14 03:44:50;;;;;;;7.30;3.10;;;18.40;99.90;;;;;;5092897;28;20016;-81
2022/07/14 03:47:16;;;;;;;9.00;3.17;;;18.50;99.90;;;;;;5075794;28;20032;-83
2022/07/14 03:49:43;;;;;;;10.35;3.30;;;18.40;99.90;;;;;;5092449;28;20016;-76
2022/07/14 03:52:09;;;;;;;8.63;3.45;;;19.30;99.90;;;;;;5107707;28;20035;-79
2022/07/14 03:54:36;;;;;;;7.82;3.00;;;20.40;98.20;;;;;;5092487;28;20015;-85
2022/07/14 03:57:04;;;;;;;9.23;3.30;;;21.40;94.30;;;;;;5092320;28;20032;-84
2022/07/14 03:59:39;;;;;;;6.20;3.15;;;22.20;91.00;;;;;;5092305;28;20022;-71
2022/07/14 04:02:09;;;;;;;7.05;3.33;;;23.10;87.90;;;;;;5097872;28;20040;-81
2022/07/14 04:04:35;;;;;;;9.00;3.40;;;24.20;82.10;;;;;;5094919;28;20024;-84
2022/07/14 04:07:03;;;;;;;8.75;3.15;;;24.60;78.30;;;;;;5075550;28;20039;-84
2022/07/14 04:09:30;;;;;;;7.30;3.30;;;25.50;84.00;;;;;;5092392;28;20044;-87
2022/07/14 04:11:58;;;;;;;8.00;3.58;;;;;;;;;;5094932;28;20533;-85
2022/07/14 04:14:24;;;;;;;12.90;4.05;;;26.40;91.40;;;;;;5088609;28;20027;-86
2022/07/14 04:16:51;;;;;;;14.27;6.60;;;27.00;71.40;;;;;;5095836;28;20024;-85
2022/07/14 04:19:19;;;;;;;15.90;6.93;;;27.30;68.90;;;;;;5078263;28;20504;-84
2022/07/14 04:21:45;;;;;;;8.68;4.72;;;27.50;68.40;;;;;;5096706;28;20019;-82
2022/07/14 04:24:12;;;;;;;7.97;4.85;;;28.40;66.00;;;;;;5079559;28;20036;-77
2022/07/14 04:26:42;;;;;;;9.68;4.15;;;28.80;64.90;;;;;;5096121;28;20012;-82
2022/07/14 04:29:08;;;;;;;5.82;3.35;;;28.90;64.80;;;;;;5095715;28;20085;-83
2022/07/14 04:31:35;;;;;;;7.85;3.90;;;28.50;63.90;;;;;;5096201;28;20047;-79
2022/07/14 04:34:02;;;;;;;10.00;3.45;;;27.70;65.00;;;;;;5114478;28;20115;-80
2022/07/14 04:36:29;;;;;;;9.60;3.97;;;28.30;65.80;;;;;;5078928;28;20059;-84
2022/07/14 04:38:57;;;;;;;9.63;4.05;;;28.60;64.10;;;;;;5114406;28;20016;-83
2022/07/14 04:41:27;;;;;;;11.13;3.95;;;28.50;63.70;;;;;;5096085;28;20023;-82
2022/07/14 04:43:53;;;;;;;8.20;3.60;;;29.60;63.60;;;;;;5095845;28;20508;-78
2022/07/14 04:46:19;;;;;;;13.32;4.00;;;30.40;62.60;;;;;;5095733;28;20015;-83
2022/07/14 04:54:24;;;;;;;16.40;3.90;;;31.40;61.40;;;;;;5096174;28;20042;-79
2022/07/14 04:57:08;;;;;;;8.32;2.80;;;31.50;61.20;;;;;;5095809;28;20039;-82
2022/07/14 04:59:39;;;;;;;4.63;2.55;;;31.10;60.80;;;;;;5078020;28;20103;-83
2022/07/14 05:02:05;;;;;;;4.78;2.22;;;30.50;63.60;;;;;;5114170;28;20043;-83
2022/07/14 05:04:32;;;;;;;7.13;2.47;;;29.10;62.80;;;;;;5110044;28;20024;-81
2022/07/14 05:06:59;;;;;;;4.82;2.30;;;28.20;63.60;;;;;;5113856;28;20024;-75
2022/07/14 05:09:30;;;;;;;7.90;2.47;;;27.50;65.20;;;;;;5095307;28;20020;-82
2022/07/14 05:11:59;;;;;;;6.33;3.10;;;27.20;65.50;;;;;;5095418;28;20038;-79
2022/07/14 05:14:25;;;;;;;6.07;2.22;;;26.50;65.80;;;;;;5095138;28;20019;-82
2022/07/14 05:16:51;;;;;;;6.78;2.65;;;25.80;67.80;;;;;;5111238;28;20079;-83
2022/07/14 05:19:17;;;;;;;5.97;2.65;;;25.80;68.70;;;;;;5094674;28;20031;-82
2022/07/14 05:21:44;;;;;;;5.30;2.88;;;25.80;69.00;;;;;;5085252;28;20078;-81
2022/07/14 05:24:11;;;;;;;12.88;3.17;;;25.80;69.90;;;;;;5094705;28;20035;-81
2022/07/14 05:26:38;;;;;;;9.85;3.28;;;25.40;68.90;;;;;;5098925;28;20450;-78
2022/07/14 05:29:04;;;;;;;8.52;2.88;;;25.40;70.30;;;;;;5077485;28;20028;-79
2022/07/14 05:31:30;;;;;;;7.60;2.65;;;25.50;70.00;;;;;;5078201;28;20024;-84
2022/07/14 05:33:56;;;;;;;5.15;2.53;;;25.30;76.70;;;;;;5077734;28;20470;-81
2022/07/14 05:36:24;;;;;;;9.10;2.50;;;25.20;72.00;;;;;;5094586;28;20054;-82
2022/07/14 05:38:51;;;;;;;8.13;2.70;;;25.20;70.70;;;;;;5077677;28;20028;-80
2022/07/14 05:41:19;;;;;;;8.48;3.45;;;25.10;71.20;;;;;;5113124;28;20381;-81
2022/07/14 05:43:49;;;;;;;5.45;2.65;;;25.20;71.10;;;;;;5094402;28;20031;-80
2022/07/14 05:46:15;;;;;;;7.68;2.35;;;25.40;70.10;;;;;;5077098;28;20413;-79
2022/07/14 05:48:42;;;;;;;5.40;1.65;;;25.40;70.00;;;;;;5094356;28;20060;-82
2022/07/14 05:51:14;;;;;;;5.15;2.10;;;25.40;70.60;;;;;;5080467;28;20401;-81
2022/07/14 05:53:44;;;;;;;4.30;2.17;;;25.30;71.20;;;;;;5076990;28;20109;-80
2022/07/14 05:56:13;;;;;;;5.45;2.22;;;25.40;70.90;;;;;;5093684;28;20145;-82
2022/07/14 05:58:40;;;;;;;6.15;2.05;;;25.50;72.00;;;;;;5076836;28;20016;-79
2022/07/14 06:01:07;;;;;;;5.97;2.38;;;25.50;72.20;;;;;;5093738;28;20039;-81
2022/07/14 06:03:34;;;;;;;4.07;2.38;;;25.70;69.10;;;;;;5093871;28;20056;-81
2022/07/14 06:06:04;;;;;;;5.22;2.55;;;25.60;68.10;;;;;;5090241;28;20027;-81
2022/07/14 06:08:31;;;;;;;6.57;2.10;;;25.90;69.70;;;;;;5094499;28;20054;-83
2022/07/14 06:10:58;;;;;;;6.90;2.28;;;26.30;69.40;;;;;;5094503;28;20375;-82
2022/07/14 06:13:25;;;;;;;4.85;1.58;;;26.40;70.90;;;;;;5093847;28;20020;-74
2022/07/14 06:15:51;;;;;;;8.68;2.00;;;26.40;70.60;;;;;;5108795;28;20032;-80
2022/07/14 06:18:18;;;;;;;9.32;2.00;;;26.60;69.30;;;;;;5111459;28;20030;-79
2022/07/14 06:20:44;;;;;;;2.65;1.92;;;26.60;68.00;;;;;;5093691;28;20449;-77
2022/07/14 06:23:11;;;;;;;4.78;2.25;;;26.50;66.80;;;;;;5112352;28;20035;-80
2022/07/14 06:25:38;;;;;;;4.13;1.58;;;26.60;67.60;;;;;;5094159;28;20024;-82
2022/07/14 06:28:05;;;;;;;5.95;1.85;;;26.50;66.60;;;;;;5093563;28;20028;-82
2022/07/14 06:30:32;;;;;;;5.22;1.95;;;26.40;66.50;;;;;;5093763;28;20024;-81
2022/07/14 06:32:58;;;;;;;5.93;1.65;;;26.70;66.70;;;;;;5093649;28;20027;-80
2022/07/14 06:35:25;;;;;;;6.05;2.03;;;27.00;74.10;;;;;;5093741;28;20030;-84
2022/07/14 06:37:53;;;;;;;4.15;2.05;;;27.00;66.50;;;;;;5092979;28;20020;-83
2022/07/14 06:40:19;;;;;;;7.75;2.13;;;27.20;65.70;;;;;;5097869;28;20102;-82
2022/07/14 06:42:46;;;;;;;7.68;2.03;;;27.10;66.20;;;;;;5095048;28;20035;-84
2022/07/14 06:45:32;;;;;;;5.28;2.05;;;27.00;65.20;;;;;;5111839;28;20032;-82
2022/07/14 06:47:59;;;;;;;5.43;2.10;;;27.10;64.60;;;;;;5093309;28;20434;-81
2022/07/14 06:50:25;;;;;;;6.80;2.20;;;27.10;65.80;;;;;;5110399;28;20054;-72
2022/07/14 06:52:52;;;;;;;9.13;2.53;;;27.10;65.00;;;;;;5110609;28;20019;-80
2022/07/14 06:55:18;;;;;;;4.40;2.45;;;27.20;66.10;;;;;;5093647;28;20587;-80
2022/07/14 06:57:44;;;;;;;3.85;2.10;;;27.20;66.20;;;;;;5111465;28;20038;-81
2022/07/14 07:00:11;;;;;;;15.90;1.67;;;27.60;68.80;;;;;;5111119;28;20014;-82
2022/07/14 07:02:37;;;;;;;8.85;2.28;;;27.60;64.10;;;;;;5110678;28;20055;-79
2022/07/14 07:07:49;;;;;;;5.68;2.10;;;27.60;65.30;;;;;;5109527;28;20026;-81
2022/07/14 07:10:15;;;;;;;6.75;1.92;;;27.60;64.90;;;;;;5110650;28;20016;-79
2022/07/14 07:12:41;;;;;;;2.95;1.75;;;27.90;65.40;;;;;;5106270;28;20420;-81
2022/07/14 07:15:08;;;;;;;4.78;2.00;;;28.20;66.80;;;;;;5110789;28;20035;-80
2022/07/14 07:17:34;;;;;;;10.15;2.97;;;28.00;64.80;;;;;;5111331;28;20481;-81
2022/07/14 07:20:00;;;;;;;6.93;2.22;;;27.90;65.10;;;;;;5111059;28;20050;-80
2022/07/14 07:22:26;;;;;;;6.63;1.95;;;28.10;65.70;;;;;;5110588;28;20066;-81
2022/07/14 07:24:52;;;;;;;5.03;1.65;;;28.30;65.90;;;;;;5104006;28;20051;-82
2022/07/14 07:27:18;;;;;;;2.90;1.95;;;28.40;65.30;;;;;;5111994;28;20026;-79
2022/07/14 07:29:44;;;;;;;4.53;2.28;;;28.30;64.80;;;;;;5110327;28;20390;-79
2022/07/14 07:32:11;;;;;;;8.60;3.05;;;28.40;64.40;;;;;;5109556;28;20461;-81
2022/07/14 07:34:37;;;;;;;3.08;1.98;;;28.40;64.10;;;;;;5112587;28;20031;-78
2022/07/14 07:37:04;;;;;;;10.25;3.13;;;28.20;63.30;;;;;;5090932;28;20028;-79
2022/07/14 07:39:31;;;;;;;7.28;2.88;;;28.20;64.40;;;;;;5105379;28;20035;-80
2022/07/14 07:42:00;;;;;;;7.15;3.20;;;28.60;66.30;;;;;;5110824;28;20035;-81
2022/07/14 07:44:30;;;;;;;8.32;3.22;;;28.60;65.10;;;;;;5107594;28;20032;-82
2022/07/14 07:46:56;;;;;;;8.23;3.03;;;28.80;63.60;;;;;;5107749;28;20061;-78
2022/07/14 07:49:22;;;;;;;10.63;3.45;;;29.00;64.40;;;;;;5106336;28;20024;-80
2022/07/14 07:51:48;;;;;;;7.22;2.80;;;29.50;73.30;;;;;;5112672;28;20034;-80
2022/07/14 07:54:14;;;;;;;6.07;3.42;;;29.50;64.20;;;;;;5115349;28;20016;-82
2022/07/14 07:56:40;;;;;;;12.55;2.63;;;29.50;63.80;;;;;;5114310;28;20024;-79
2022/07/14 07:59:05;;;;;;;9.80;3.17;;;29.70;64.40;;;;;;5093351;28;20160;-80
2022/07/14 08:01:31;;;;;;;4.93;2.40;;;29.80;65.80;;;;;;5115584;28;20035;-81
2022/07/14 08:03:57;;;;;;;5.40;2.10;;;30.10;74.70;;;;;;5116830;28;20038;-81
2022/07/14 08:06:23;;;;;;;6.22;2.13;;;30.00;81.10;;;;;;5116330;28;20047;-81
2022/07/14 08:08:49;;;;;;;5.15;2.42;;;29.80;62.60;;;;;;5116516;28;20055;-81
2022/07/14 08:11:15;;;;;;;7.03;2.50;;;30.10;62.70;;;;;;5116728;28;20488;-81
2022/07/14 08:13:41;;;;;;;6.05;2.42;;;29.90;60.90;;;;;;5116475;28;20031;-81
2022/07/14 08:16:07;;;;;;;5.88;2.25;;;29.80;62.40;;;;;;5115940;28;20031;-77
2022/07/14 08:18:33;;;;;;;6.43;2.22;;;29.90;64.20;;;;;;5116724;28;20099;-81
2022/07/14 08:20:59;;;;;;;10.23;2.20;;;;;;;;;;5115454;28;20118;-76
2022/07/14 08:23:26;;;;;;;4.05;1.95;;;30.30;80.80;;;;;;5110322;28;20096;-81
2022/07/14 08:25:52;;;;;;;6.25;1.98;;;30.30;81.90;;;;;;5082726;28;20078;-81
2022/07/14 08:28:19;;;;;;;7.03;1.90;;;30.30;64.70;;;;;;5107995;28;20032;-81
2022/07/14 08:30:45;;;;;;;2.92;1.92;;;30.60;62.20;;;;;;5102674;28;20028;-81
2022/07/14 08:33:10;;;;;;;6.55;2.17;;;30.80;62.00;;;;;;5092220;28;20032;-82
2022/07/14 08:35:37;;;;;;;5.80;2.20;;;30.70;62.50;;;;;;5104106;28;20522;-80
2022/07/14 08:38:03;;;;;;;4.45;2.38;;;30.80;61.80;;;;;;5105368;28;20016;-82
2022/07/14 08:40:29;;;;;;;5.00;2.00;;;31.10;61.20;;;;;;5105386;28;20023;-81
2022/07/14 08:42:56;;;;;;;3.95;1.58;;;31.10;61.30;;;;;;5114213;28;20119;-79
2022/07/14 08:45:26;;;;;;;4.50;2.22;;;31.00;60.10;;;;;;5112022;27;20019;-81
2022/07/14 08:47:53;;;;;;;6.38;2.38;;;31.10;60.60;;;;;;5105473;28;20028;-81
2022/07/14 08:50:21;;;;;;;9.70;2.38;;;30.90;61.30;;;;;;5110932;27;20024;-82
2022/07/14 08:52:47;;;;;;;3.92;1.90;;;31.20;60.30;;;;;;5118622;27;20119;-81
2022/07/14 08:55:15;;;;;;;2.72;1.67;;;30.70;60.00;;;;;;5113840;28;20028;-81
2022/07/14 08:57:42;;;;;;;4.28;1.88;;;31.00;61.80;;;;;;5114895;28;20098;-81
2022/07/14 09:00:11;;;;;;;3.67;1.60;;;31.30;59.90;;;;;;5113734;27;20024;-80
2022/07/14 09:02:38;;;;;;;2.03;1.80;;;31.10;59.80;;;;;;5109390;28;20410;-81
2022/07/14 09:05:05;;;;;;;6.47;2.10;;;31.40;63.90;;;;;;5114759;28;20386;-82
2022/07/14 09:07:33;;;;;;;7.65;2.42;;;;;;;;;;5114182;27;20019;-82
2022/07/14 09:10:10;;;;;;;3.10;1.60;;;31.50;60.70;;;;;;5114620;28;20392;-80
2022/07/14 09:12:37;;;;;;;3.47;1.60;;;31.50;59.20;;;;;;5112675;28;20421;-79
2022/07/14 09:17:50;;;;;;;4.00;1.67;;;31.50;61.40;;;;;;5113714;28;20059;-77
2022/07/14 09:20:16;;;;;;;6.10;1.95;;;31.50;59.20;;;;;;5113876;28;20051;-79
2022/07/14 09:22:43;;;;;;;5.55;1.83;;;31.60;61.20;;;;;;5109575;28;20047;-77
2022/07/14 09:25:17;;;;;;;4.57;1.88;;;;;;;;;;5113072;28;20450;-79
2022/07/14 09:27:45;;;;;;;4.50;1.60;;;31.90;59.10;;;;;;5114811;28;20059;-79
2022/07/14 09:30:12;;;;;;;4.30;1.40;;;32.00;57.20;;;;;;5113533;28;20012;-80
2022/07/14 09:32:56;;;;;;;3.90;1.50;;;31.70;55.90;;;;;;5114585;28;20039;-70
2022/07/14 09:35:38;;;;;;;1.52;1.40;;;31.60;56.00;;;;;;5102480;28;20023;-75
2022/07/14 09:38:15;;;;;;;4.38;1.63;;;32.00;57.70;;;;;;5114083;28;20024;-77
2022/07/14 09:40:42;;;;;;;1.45;1.35;;;31.80;59.70;;;;;;5113992;28;20439;-78
2022/07/14 09:43:09;;;;;;;3.33;1.23;;;32.00;56.70;;;;;;5113825;28;20023;-71
2022/07/14 09:45:37;;;;;;;2.63;1.25;;;31.80;57.10;;;;;;5114277;28;20035;-73
2022/07/14 09:48:12;;;;;;;3.78;1.73;;;31.80;57.10;;;;;;5114640;28;20110;-78
2022/07/14 09:50:44;;;;;;;2.75;1.33;;;31.70;55.90;;;;;;5114369;28;20031;-74
2022/07/14 09:53:25;;;;;;;1.63;1.25;;;31.90;56.20;;;;;;5114329;28;20497;-79
2022/07/14 09:56:05;;;;;;;2.03;1.20;;;32.10;56.20;;;;;;5114518;28;20023;-78
2022/07/14 09:58:41;;;;;;;1.40;1.30;;;32.30;57.30;;;;;;5112790;28;20024;-74
2022/07/14 10:01:10;;;;;;;6.00;1.45;;;32.50;56.00;;;;;;5109685;28;20039;-77
2022/07/14 10:03:40;;;;;;;1.95;1.10;;;32.30;56.50;;;;;;5111353;28;20063;-76
2022/07/14 10:06:06;;;;;;;1.42;1.27;;;32.00;55.30;;;;;;5112897;28;20020;-80
2022/07/14 10:08:39;;;;;;;3.22;1.20;;;32.20;55.90;;;;;;5112920;28;20050;-62
2022/07/14 10:11:06;;;;;;;4.85;1.30;;;32.40;54.70;;;;;;5112640;28;20023;-78
2022/07/14 10:13:32;;;;;;;3.80;1.40;;;32.00;54.60;;;;;;5106321;28;20036;-76
2022/07/14 10:15:58;;;;;;;2.13;1.40;;;31.80;55.90;;;;;;5112439;28;20036;-80
2022/07/14 10:18:26;;;;;;;2.45;1.23;;;32.00;56.80;;;;;;5111660;28;20355;-73
2022/07/14 10:20:55;;;;;;;2.33;1.23;;;31.90;58.80;;;;;;5108204;28;20051;-70
2022/07/14 10:23:23;;;;;;;2.30;0.93;;;31.90;52.50;;;;;;5112156;28;20081;-65
2022/07/14 10:25:52;;;;;;;2.63;1.10;;;31.90;54.00;;;;;;5112213;28;20107;-75
2022/07/14 10:28:18;;;;;;;1.23;1.10;;;31.90;53.00;;;;;;5111789;28;20035;-76
2022/07/14 10:31:06;;;;;;;3.35;1.33;;;31.80;54.20;;;;;;5111729;28;20062;-75
2022/07/14 10:33:50;;;;;;;3.15;1.00;;;32.10;54.90;;;;;;5113509;28;20027;-79
2022/07/14 10:36:32;;;;;;;2.22;1.67;;;32.30;55.70;;;;;;5100305;28;20027;-76
2022/07/14 10:38:58;;;;;;;2.97;1.23;;;32.70;54.10;;;;;;5092171;28;20035;-79
2022/07/14 10:42:11;;;;;;;1.63;1.13;;;32.40;52.50;;;;;;5113246;28;20011;-76
2022/07/14 10:44:42;;;;;;;4.72;1.35;;;32.40;54.10;;;;;;5003938;28;20189;-75
2022/07/14 10:47:10;;;;;;;3.33;1.27;;;32.10;53.30;;;;;;5002651;28;20030;-82
2022/07/14 10:50:06;;;;;;;2.38;1.42;;;32.00;66.90;;;;;;5009380;28;20030;-81
2022/07/14 10:52:35;;;;;;;1.50;1.10;;;32.20;74.20;;;;;;5010756;28;20057;-81
2022/07/14 10:55:28;;;;;;;2.00;1.35;;;32.10;61.50;;;;;;5009981;28;20030;-81
2022/07/14 10:57:59;;;;;;;1.80;0.95;;;31.90;74.20;;;;;;4992694;28;20034;-82
2022/07/14 11:00:55;;;;;;;10.95;1.35;;;32.10;74.00;;;;;;5008101;28;20354;-81
2022/07/14 11:03:32;;;;;;;1.08;0.88;;;32.40;56.50;;;;;;4988957;28;20625;-79
2022/07/14 11:06:05;;;;;;;2.05;0.90;;;32.40;56.10;;;;;;4990318;28;20085;-81
2022/07/14 11:08:31;;;;;;;1.80;0.98;;;32.60;57.50;;;;;;4990259;28;20214;-81
2022/07/14 11:10:59;;;;;;;2.28;1.30;;;33.70;70.30;;;;;;4990333;28;20485;-77
2022/07/14 11:13:26;;;;;;;1.20;1.00;;;32.80;63.60;;;;;;4990201;28;20038;-82
2022/07/14 11:15:56;;;;;;;1.15;0.82;;;32.80;51.70;;;;;;5046647;28;20032;-81
2022/07/14 11:18:25;;;;;;;2.58;0.80;;;32.60;52.50;;;;;;5072783;28;20020;-81
2022/07/14 11:21:07;;;;;;;0.90;0.90;;;32.60;50.70;;;;;;5071893;28;20022;-81
2022/07/14 11:23:36;;;;;;;11.23;1.23;;;32.40;50.60;;;;;;5072524;28;20119;-81
2022/07/14 11:26:07;;;;;;;0.95;0.80;;;32.40;50.80;;;;;;5067690;28;20017;-78
2022/07/14 11:28:44;;;;;;;1.27;1.10;;;;;;;;;;5071985;28;20024;-81
2022/07/14 11:31:11;;;;;;;1.45;0.93;;;32.20;57.80;;;;;;5073235;28;20352;-82
2022/07/14 11:36:17;;;;;;;5.53;1.35;;;31.10;56.60;;;;;;5072344;28;20086;-82
2022/07/14 11:36:25;;;;;;;2.13;1.08;;;32.30;62.20;;;;;;5072285;28;20483;-81
2022/07/14 11:39:16;;;;;;;1.80;1.13;;;32.30;58.70;;;;;;5072574;28;20021;-82
2022/07/14 11:41:45;;;;;;;;;;;32.00;60.80;;;;;;5064827;28;20031;-82
2022/07/14 11:44:33;;;;;;;3.47;1.20;;;32.30;74.30;;;;;;5070782;28;19909;-82
2022/07/14 11:47:00;;;;;;;2.70;1.25;;;32.50;65.50;;;;;;5070731;28;20386;-81
2022/07/14 11:49:26;;;;;;;1.38;1.23;;;32.60;80.60;;;;;;5069980;28;20025;-82
2022/07/14 11:51:57;;;;;;;2.30;1.15;;;32.60;67.20;;;;;;5071800;28;20025;-82
2022/07/14 11:54:23;;;;;;;1.55;0.90;;;32.70;79.40;;;;;;5066426;28;20112;-75
2022/07/14 11:56:49;;;;;;;2.63;1.05;;;32.50;79.10;;;;;;5069456;28;20717;-81
2022/07/14 11:59:19;;;;;;;2.33;1.02;;;32.70;75.10;;;;;;5067857;28;20445;-82
2022/07/14 12:01:45;;;;;;;2.65;0.90;;;32.50;76.30;;;;;;5083318;28;20043;-68
2022/07/14 12:04:17;;;;;;;2.92;1.08;;;32.50;68.10;;;;;;5110797;28;20032;-78
2022/07/14 12:06:47;;;;;;;2.08;1.20;;;32.30;50.60;;;;;;5107924;28;20027;-76
2022/07/14 12:09:16;;;;;;;4.80;1.57;;;32.60;52.40;;;;;;5111529;28;20473;-81
2022/07/14 12:11:52;;;;;;;3.85;0.98;;;32.50;51.50;;;;;;5111386;28;20107;-80
2022/07/14 12:14:19;;;;;;;3.20;1.33;;;33.00;58.80;;;;;;5110095;28;20031;-79
2022/07/14 12:16:45;;;;;;;2.20;1.00;;;33.10;73.10;;;;;;5111040;28;20030;-77
2022/07/14 12:19:12;;;;;;;2.88;1.23;;;32.90;76.30;;;;;;5111337;28;20047;-77
2022/07/14 12:21:38;;;;;;;3.97;1.05;;;32.90;80.50;;;;;;5110901;28;20032;-79
2022/07/14 12:24:06;;;;;;;6.18;1.20;;;33.00;80.70;;;;;;5110950;28;20028;-77
2022/07/14 12:26:33;;;;;;;1.60;1.10;;;32.80;81.00;;;;;;5111523;28;20012;-78
2022/07/14 12:29:02;;;;;;;1.85;1.05;;;33.00;83.20;;;;;;5100775;28;20015;-78
2022/07/14 12:31:30;;;;;;;2.47;1.48;;;;;;;;;;5111349;28;20031;-79
2022/07/14 12:34:01;;;;;;;1.38;1.00;;;;;;;;;;5111480;28;20044;-77
2022/07/14 12:36:30;;;;;;;1.50;0.90;;;;;;;;;;5104867;28;20393;-77
2022/07/14 12:38:59;;;;;;;1.23;1.00;;;33.10;50.90;;;;;;5114002;27;20493;-79
2022/07/14 12:41:26;;;;;;;1.20;1.10;;;33.10;51.60;;;;;;5113927;28;20023;-79
2022/07/14 12:43:52;;;;;;;3.70;1.05;;;33.10;51.50;;;;;;5115402;28;20055;-78
2022/07/14 12:46:20;;;;;;;1.73;1.48;;;32.90;52.30;;;;;;5096563;28;20039;-77
2022/07/14 12:48:49;;;;;;;1.27;0.93;;;32.80;51.00;;;;;;5115870;28;20019;-79
2022/07/14 12:51:24;;;;;;;1.20;0.90;;;33.10;52.40;;;;;;5115682;28;20027;-79
2022/07/14 12:54:04;;;;;;;3.17;1.35;;;33.00;53.50;;;;;;5114867;28;20026;-79
2022/07/14 12:56:35;;;;;;;1.10;1.00;;;32.90;49.70;;;;;;5113947;28;20032;-62
2022/07/14 12:59:03;;;;;;;1.13;1.03;;;32.70;50.90;;;;;;5115241;28;20268;-63
2022/07/14 13:01:30;;;;;;;2.33;1.17;;;32.70;51.20;;;;;;5114428;28;20442;-62
2022/07/14 13:03:59;;;;;;;2.47;1.60;;;32.60;50.50;;;;;;5114420;28;20047;-77
2022/07/14 13:06:26;;;;;;;3.80;1.20;;;32.50;50.20;;;;;;5113276;28;20390;-78
2022/07/14 13:08:53;;;;;;;3.10;1.33;;;32.60;49.60;;;;;;5103751;28;20024;-77
2022/07/14 13:11:26;;;;;;;1.58;0.75;;;32.80;49.90;;;;;;5108825;27;20031;-78